Olivia, Texas
Current Conditions -  °F | °C
As of 4:10 AM on Thursday 27 Nov 2014 (Local Time) from KPKV Reporting Station
Clear Clear  
Wind Chill: 44°   Ceiling: Unl
Heat Index: 46°   Visibility: 10mi
Dew Point: 45°   Wind: 5mph
Humidity: 95%   Direction: 10°N
Pressure: 30.37"   Gusts: NA
Location:  28.5342°N, 96.663°W
Report Text: KPKV 271010Z AUTO 01004KT 10SM CLR 08/07 A3037 RMK AO2 T00780070
Loading
Personal Weather Stations






























Interactive Weather Map New forecast layout! Learn more

10-Day Weather Forecast

Advertisements
Track Severe Weather on mobile